Burton, Illinois
Current Conditions -  °F | °C
As of 10:02 PM on Thursday 18 Dec 2014 (Local Time) from KUIN Reporting Station
Overcast Overcast  
Wind Chill: 28°   Ceiling: 2700
Heat Index: 28°   Visibility: 9mi
Dew Point: 23°   Wind: 0mph
Humidity: 81%   Direction: NA
Pressure: 30.29"   Gusts: NA
Location:  39.9317°N, 91.2953°W
Report Text: KUIN 190402Z AUTO 00000KT 9SM BKN027 OVC035 M02/M05 A3029 RMK AO2 T10221050
Loading
Personal Weather Stations






























Interactive Weather Map New forecast layout! Learn more

10-Day Weather Forecast

Advertisements
Track Severe Weather on mobile